createdAt,value
2018-06-08T00:00:38.265Z,27.95
2018-06-08T00:03:11.976Z,27.96
2018-06-08T00:05:47.866Z,27.95
2018-06-08T00:08:23.888Z,27.91
2018-06-08T00:10:59.762Z,27.88
2018-06-08T00:13:37.359Z,27.86
2018-06-08T00:16:14.922Z,27.85
2018-06-08T00:18:50.329Z,27.85
2018-06-08T00:21:27.092Z,27.83
2018-06-08T00:24:03.082Z,27.82
2018-06-08T00:26:39.917Z,27.81
2018-06-08T00:29:15.818Z,27.79
2018-06-08T00:31:51.536Z,27.82
2018-06-08T00:34:27.270Z,27.80
2018-06-08T00:37:03.152Z,27.79
2018-06-08T00:39:39.483Z,27.76
2018-06-08T00:42:16.101Z,27.72
2018-06-08T00:44:52.681Z,27.72
2018-06-08T00:47:29.447Z,27.73
2018-06-08T00:50:07.225Z,27.70
2018-06-08T00:52:45.278Z,27.72
2018-06-08T00:55:22.063Z,27.74
2018-06-08T00:57:59.074Z,27.75
2018-06-08T01:00:35.212Z,27.70
2018-06-08T01:03:11.784Z,27.74
2018-06-08T01:05:47.451Z,27.69
2018-06-08T01:08:23.276Z,27.69
2018-06-08T01:10:59.110Z,27.67
2018-06-08T01:13:34.937Z,27.67
2018-06-08T01:16:10.880Z,27.66
2018-06-08T01:18:46.546Z,27.68
2018-06-08T01:21:22.488Z,27.64
2018-06-08T01:24:00.830Z,27.63
2018-06-08T01:26:38.092Z,27.63
2018-06-08T01:29:15.076Z,27.63
2018-06-08T01:31:51.111Z,27.63
2018-06-08T01:34:27.085Z,27.58
2018-06-08T01:37:03.084Z,27.57
2018-06-08T01:39:38.679Z,27.57
2018-06-08T01:42:14.427Z,27.57
2018-06-08T01:44:50.082Z,27.54
2018-06-08T01:47:26.104Z,27.57
2018-06-08T01:50:01.575Z,27.53
2018-06-08T01:52:37.446Z,27.52
2018-06-08T01:58:05.334Z,27.40
2018-06-08T02:00:41.303Z,27.37
2018-06-08T02:03:17.292Z,27.32
2018-06-08T02:05:54.417Z,27.30
2018-06-08T02:08:32.074Z,27.36
2018-06-08T02:11:10.583Z,27.35
2018-06-08T02:13:50.761Z,27.35
2018-06-08T02:16:26.538Z,27.31
2018-06-08T02:22:04.432Z,27.11
2018-06-08T02:24:41.764Z,27.10
2018-06-08T02:27:17.720Z,27.07
2018-06-08T02:29:51.499Z,26.96
2018-06-08T02:32:27.356Z,26.94
2018-06-08T02:35:03.338Z,26.80
2018-06-08T02:37:39.251Z,26.78
2018-06-08T02:40:15.415Z,26.74
2018-06-08T02:42:51.571Z,26.72
2018-06-08T02:46:23.379Z,26.58
2018-06-08T02:48:59.421Z,26.55
2018-06-08T02:51:36.421Z,26.46
2018-06-08T02:54:12.618Z,26.46
2018-06-08T02:56:48.873Z,26.46
2018-06-08T02:59:24.426Z,26.41
2018-06-08T03:01:59.041Z,26.30
2018-06-08T03:04:34.541Z,26.25
2018-06-08T03:07:10.081Z,26.23
2018-06-08T03:09:45.795Z,26.15
2018-06-08T03:12:21.632Z,26.13
2018-06-08T03:14:57.260Z,26.09
2018-06-08T03:17:33.759Z,26.11
2018-06-08T03:20:13.229Z,26.10
2018-06-08T03:22:50.310Z,26.10
2018-06-08T03:25:24.007Z,25.99
2018-06-08T03:27:59.858Z,26.00
2018-06-08T03:30:37.083Z,25.95
2018-06-08T03:33:12.899Z,25.92
2018-06-08T03:35:48.331Z,25.87
2018-06-08T03:38:24.087Z,25.80
2018-06-08T03:40:59.842Z,25.80
2018-06-08T03:43:35.452Z,25.74
2018-06-08T03:46:09.036Z,25.70
2018-06-08T03:48:44.825Z,25.67
2018-06-08T03:51:20.843Z,25.55
2018-06-08T03:53:56.794Z,25.54
2018-06-08T03:56:33.321Z,25.55
2018-06-08T03:59:09.260Z,25.52
2018-06-08T04:01:46.497Z,25.50
2018-06-08T04:04:22.082Z,25.37
2018-06-08T04:07:26.804Z,25.39
2018-06-08T04:10:02.873Z,25.42
2018-06-08T04:12:39.871Z,25.44
2018-06-08T04:15:15.783Z,25.46
2018-06-08T04:17:52.089Z,25.41
2018-06-08T04:20:25.990Z,25.41
2018-06-08T04:23:01.886Z,25.37
2018-06-08T04:25:37.854Z,25.26
2018-06-08T04:28:14.470Z,25.18
2018-06-08T04:30:50.883Z,25.10
2018-06-08T04:33:27.175Z,25.03
2018-06-08T04:36:03.195Z,25.06
2018-06-08T04:39:23.442Z,25.06
2018-06-08T04:41:59.335Z,24.96
2018-06-08T04:44:33.001Z,24.95
2018-06-08T04:47:08.656Z,24.91
2018-06-08T04:49:44.289Z,24.81
2018-06-08T04:54:31.072Z,24.75
2018-06-08T04:57:06.970Z,24.71
2018-06-08T04:59:42.829Z,24.66
2018-06-08T05:02:18.573Z,24.63
2018-06-08T05:04:54.464Z,24.64
2018-06-08T05:07:30.093Z,24.64
2018-06-08T05:10:06.098Z,24.53
2018-06-08T05:12:42.258Z,24.55
2018-06-08T05:15:18.084Z,24.57
2018-06-08T05:17:54.070Z,24.54
2018-06-08T05:20:30.086Z,24.53
2018-06-08T05:23:06.277Z,24.43
2018-06-08T05:25:42.093Z,24.47
2018-06-08T05:28:18.534Z,24.48
2018-06-08T05:30:55.282Z,24.49
2018-06-08T05:33:31.205Z,24.49
2018-06-08T05:36:07.102Z,24.48
2018-06-08T05:38:43.870Z,24.50
2018-06-08T05:41:19.781Z,24.49
2018-06-08T05:43:55.486Z,24.45
2018-06-08T05:46:32.085Z,24.41
2018-06-08T05:49:08.096Z,24.44
2018-06-08T05:51:44.096Z,24.46
2018-06-08T05:54:20.327Z,24.45
2018-06-08T05:56:57.886Z,24.43
2018-06-08T05:59:34.326Z,24.40
2018-06-08T06:02:10.103Z,24.34
2018-06-08T06:04:46.106Z,24.33
2018-06-08T06:07:21.812Z,24.26
2018-06-08T06:09:57.580Z,24.21
2018-06-08T06:12:33.211Z,24.22
2018-06-08T06:15:09.211Z,24.18
2018-06-08T06:17:44.890Z,24.18
2018-06-08T06:20:20.529Z,24.14
2018-06-08T06:22:56.274Z,24.10
2018-06-08T06:25:31.942Z,24.14
2018-06-08T06:28:07.803Z,24.10
2018-06-08T06:30:43.543Z,24.11
2018-06-08T06:33:19.469Z,24.11
2018-06-08T06:35:55.223Z,24.09
2018-06-08T06:38:31.098Z,24.01
2018-06-08T06:41:06.566Z,23.87
2018-06-08T06:43:42.292Z,23.85
2018-06-08T06:46:18.973Z,23.83
2018-06-08T06:48:54.719Z,23.82
2018-06-08T06:51:30.753Z,23.77
2018-06-08T06:54:06.520Z,23.76
2018-06-08T06:56:43.126Z,23.70
2018-06-08T06:59:19.144Z,23.65
2018-06-08T07:01:55.257Z,23.59
2018-06-08T07:04:31.474Z,23.58
2018-06-08T07:08:10.668Z,23.56
2018-06-08T07:10:46.400Z,23.53
2018-06-08T07:13:23.125Z,23.56
2018-06-08T07:15:59.130Z,23.61
2018-06-08T07:18:35.117Z,23.57
2018-06-08T07:21:11.426Z,23.48
2018-06-08T07:23:48.745Z,23.41
2018-06-08T07:26:26.541Z,23.36
2018-06-08T07:29:02.696Z,23.29
2018-06-08T07:31:38.407Z,23.18
2018-06-08T07:34:14.574Z,23.19
2018-06-08T07:36:50.520Z,23.24
2018-06-08T07:39:26.585Z,23.21
2018-06-08T07:42:02.823Z,23.26
2018-06-08T07:44:38.839Z,23.28
2018-06-08T07:47:15.251Z,23.29
2018-06-08T07:49:51.338Z,23.29
2018-06-08T07:54:36.550Z,23.23
2018-06-08T07:57:13.714Z,23.23
2018-06-08T07:59:50.855Z,23.23
2018-06-08T08:02:26.413Z,23.17
2018-06-08T08:05:00.215Z,23.05
2018-06-08T08:07:36.214Z,22.99
2018-06-08T08:10:12.273Z,23.07
2018-06-08T08:12:46.232Z,23.04
2018-06-08T08:15:23.206Z,23.05
2018-06-08T08:17:59.314Z,23.05
2018-06-08T08:20:35.269Z,23.00
2018-06-08T08:23:11.279Z,22.96
2018-06-08T08:25:54.038Z,22.96
2018-06-08T08:28:30.218Z,23.01
2018-06-08T08:31:06.229Z,22.98
2018-06-08T08:33:42.240Z,22.97
2018-06-08T08:36:18.292Z,23.01
2018-06-08T08:38:54.214Z,23.06
2018-06-08T08:41:30.212Z,23.01
2018-06-08T08:44:06.268Z,22.96
2018-06-08T08:46:42.279Z,22.94
2018-06-08T08:49:18.217Z,22.91
2018-06-08T08:51:54.302Z,22.87
2018-06-08T08:54:31.978Z,22.88
2018-06-08T08:57:08.011Z,22.86
2018-06-08T08:59:44.272Z,22.95
2018-06-08T09:02:20.305Z,23.00
2018-06-08T09:04:56.286Z,22.98
2018-06-08T09:07:34.224Z,22.92
2018-06-08T09:10:10.334Z,22.87
2018-06-08T09:12:46.440Z,22.91
2018-06-08T09:15:23.630Z,22.89
2018-06-08T09:17:59.695Z,22.87
2018-06-08T09:20:35.555Z,22.85
2018-06-08T09:23:09.459Z,22.88
2018-06-08T09:25:45.422Z,22.85
2018-06-08T09:28:21.298Z,22.89
2018-06-08T09:30:57.209Z,22.89
2018-06-08T09:33:33.279Z,22.86
2018-06-08T09:36:09.986Z,22.91
2018-06-08T09:38:45.619Z,22.91
2018-06-08T09:41:21.271Z,22.90
2018-06-08T09:43:57.089Z,22.88
2018-06-08T09:46:32.755Z,22.85
2018-06-08T09:49:08.407Z,22.75
2018-06-08T09:51:42.217Z,22.61
2018-06-08T09:54:18.068Z,22.70
2018-06-08T09:56:54.207Z,22.75
2018-06-08T09:59:29.804Z,22.72
2018-06-08T10:02:05.433Z,22.69
2018-06-08T10:04:39.024Z,22.68
2018-06-08T10:07:14.783Z,22.73
2018-06-08T10:09:50.296Z,22.75
2018-06-08T10:12:26.093Z,22.75
2018-06-08T10:15:01.666Z,22.74
2018-06-08T10:17:37.275Z,22.70
2018-06-08T10:20:12.857Z,22.65
2018-06-08T10:22:48.453Z,22.69
2018-06-08T10:25:24.103Z,22.68
2018-06-08T10:27:59.797Z,22.66
2018-06-08T10:30:35.276Z,22.64
2018-06-08T10:33:11.078Z,22.65
2018-06-08T10:35:46.762Z,22.64
2018-06-08T10:38:22.416Z,22.61
2018-06-08T10:40:56.001Z,22.59
2018-06-08T10:43:31.670Z,22.60
2018-06-08T10:46:07.325Z,22.58
2018-06-08T10:48:41.019Z,22.54
2018-06-08T10:51:43.213Z,22.52
2018-06-08T10:54:19.988Z,22.55
2018-06-08T10:56:56.279Z,22.51
2018-06-08T10:59:32.090Z,22.52
2018-06-08T11:02:07.940Z,22.48
2018-06-08T11:04:44.097Z,22.52
2018-06-08T11:07:20.089Z,22.45
2018-06-08T11:09:55.851Z,22.39
2018-06-08T11:12:31.545Z,22.37
2018-06-08T11:15:05.213Z,22.30
2018-06-08T11:17:41.090Z,22.20
2018-06-08T11:20:17.073Z,22.16
2018-06-08T11:22:53.069Z,22.05
2018-06-08T11:25:29.107Z,21.92
2018-06-08T11:28:05.121Z,21.99
2018-06-08T11:30:40.981Z,22.00
2018-06-08T11:33:17.093Z,21.95
2018-06-08T11:35:52.950Z,21.94
2018-06-08T11:38:28.850Z,21.87
2018-06-08T11:41:04.554Z,21.87
2018-06-08T11:43:41.277Z,21.94
2018-06-08T11:46:17.109Z,22.00
2018-06-08T11:48:53.859Z,21.99
2018-06-08T11:51:30.211Z,22.02
2018-06-08T11:54:06.290Z,22.00
2018-06-08T11:56:42.340Z,22.02
2018-06-08T11:59:18.430Z,22.02
2018-06-08T12:01:54.898Z,22.02
2018-06-08T12:04:31.087Z,21.98
2018-06-08T12:07:07.312Z,21.89
2018-06-08T12:09:43.443Z,21.87
2018-06-08T12:12:19.433Z,21.86
2018-06-08T12:14:55.826Z,21.87
2018-06-08T12:17:32.094Z,21.91
2018-06-08T12:20:08.278Z,21.85
2018-06-08T12:22:44.428Z,21.83
2018-06-08T12:25:20.918Z,21.79
2018-06-08T12:27:57.209Z,21.75
2018-06-08T12:30:33.303Z,21.75
2018-06-08T12:33:10.274Z,21.70
2018-06-08T12:35:46.469Z,21.65
2018-06-08T12:38:22.530Z,21.68
2018-06-08T12:40:58.420Z,21.66
2018-06-08T12:48:41.270Z,21.67
2018-06-08T12:51:17.082Z,21.55
2018-06-08T12:53:55.092Z,21.43
2018-06-08T12:56:32.273Z,21.36
2018-06-08T12:59:09.289Z,21.38
2018-06-08T13:01:46.742Z,21.33
2018-06-08T13:04:23.555Z,21.32
2018-06-08T13:07:01.289Z,21.38
2018-06-08T13:09:38.328Z,21.31
2018-06-08T13:12:15.272Z,21.23
2018-06-08T13:14:52.811Z,21.21
2018-06-08T13:17:30.070Z,21.21
2018-06-08T13:20:07.335Z,21.25
2018-06-08T13:22:43.873Z,21.19
2018-06-08T13:25:22.116Z,21.18
2018-06-08T13:27:59.288Z,21.16
2018-06-08T13:30:37.211Z,21.20
2018-06-08T13:33:15.270Z,21.25
2018-06-08T13:35:52.429Z,21.26
2018-06-08T13:38:29.696Z,21.30
2018-06-08T13:41:07.077Z,21.30
2018-06-08T13:43:44.320Z,21.26
2018-06-08T13:46:34.611Z,21.23
2018-06-08T13:49:13.266Z,21.24
2018-06-08T13:51:50.674Z,21.22
2018-06-08T13:54:28.122Z,21.18
2018-06-08T13:57:06.575Z,21.15
2018-06-08T13:59:43.817Z,21.18
2018-06-08T14:02:21.511Z,21.14
2018-06-08T14:04:58.806Z,21.15
2018-06-08T14:07:36.893Z,21.09
2018-06-08T14:10:15.262Z,21.05
2018-06-08T14:12:53.067Z,21.10
2018-06-08T14:15:30.467Z,21.19
2018-06-08T14:18:07.569Z,21.20
2018-06-08T14:20:44.089Z,21.16
2018-06-08T14:23:21.101Z,21.12
2018-06-08T14:25:58.664Z,21.07
2018-06-08T14:28:36.673Z,21.14
2018-06-08T14:31:15.451Z,21.10
2018-06-08T14:33:52.398Z,21.05
2018-06-08T14:36:27.467Z,21.13
2018-06-08T14:39:03.974Z,21.23
2018-06-08T14:41:41.414Z,21.26
2018-06-08T14:44:18.512Z,21.25
2018-06-08T14:46:55.284Z,21.19
2018-06-08T14:49:33.062Z,21.18
2018-06-08T14:52:09.867Z,21.21
2018-06-08T14:54:47.093Z,21.27
2018-06-08T14:57:24.482Z,21.26
2018-06-08T15:00:02.265Z,21.23
2018-06-08T15:02:39.209Z,21.21
2018-06-08T15:05:18.259Z,21.25
2018-06-08T15:07:55.091Z,21.18
2018-06-08T15:10:33.266Z,21.18
2018-06-08T15:13:10.266Z,21.21
2018-06-08T15:15:47.281Z,21.24
2018-06-08T15:18:22.011Z,21.28
2018-06-08T15:20:59.807Z,21.26
2018-06-08T15:23:38.135Z,21.21
2018-06-08T15:26:14.859Z,21.21
2018-06-08T15:28:52.268Z,21.24
2018-06-08T15:31:29.661Z,21.26
2018-06-08T15:34:07.237Z,21.27
2018-06-08T15:36:45.282Z,21.27
2018-06-08T15:39:23.303Z,21.24
2018-06-08T15:42:00.488Z,21.27
2018-06-08T15:44:39.372Z,21.28
2018-06-08T15:47:16.753Z,21.30
2018-06-08T15:49:54.104Z,21.32
2018-06-08T15:52:31.690Z,21.36
2018-06-08T15:55:09.334Z,21.37
2018-06-08T15:57:46.560Z,21.39
2018-06-08T16:00:24.919Z,21.41
2018-06-08T16:03:03.426Z,21.43
2018-06-08T16:05:40.578Z,21.45
2018-06-08T16:08:18.108Z,21.49
2018-06-08T16:10:54.080Z,21.53
2018-06-08T16:13:30.256Z,21.60
2018-06-08T16:16:06.443Z,21.63
2018-06-08T16:18:42.437Z,21.64
2018-06-08T16:21:18.668Z,21.69
2018-06-08T16:23:54.452Z,21.69
2018-06-08T16:26:30.402Z,21.71
2018-06-08T16:29:06.271Z,21.71
2018-06-08T16:31:42.114Z,21.70
2018-06-08T16:34:18.079Z,21.72
2018-06-08T16:36:54.213Z,21.74
2018-06-08T16:39:30.843Z,21.78
2018-06-08T16:42:06.807Z,21.83
2018-06-08T16:44:43.330Z,21.85
2018-06-08T16:47:19.212Z,21.87
2018-06-08T16:49:55.868Z,21.94
2018-06-08T16:52:31.760Z,22.00
2018-06-08T16:55:08.278Z,22.07
2018-06-08T16:57:44.280Z,22.13
2018-06-08T17:00:21.213Z,22.17
2018-06-08T17:02:57.428Z,22.20
2018-06-08T17:05:34.094Z,22.23
2018-06-08T17:08:10.301Z,22.28
2018-06-08T17:10:46.684Z,22.33
2018-06-08T17:13:22.861Z,22.37
2018-06-08T17:15:59.297Z,22.42
2018-06-08T17:18:35.690Z,22.48
2018-06-08T17:21:18.866Z,22.53
2018-06-08T17:23:55.325Z,22.57
2018-06-08T17:26:29.400Z,22.61
2018-06-08T17:29:05.424Z,22.69
2018-06-08T17:31:42.432Z,22.74
2018-06-08T17:34:18.444Z,22.80
2018-06-08T17:36:54.688Z,22.86
2018-06-08T17:39:30.882Z,22.92
2018-06-08T17:42:07.307Z,22.97
2018-06-08T17:44:43.882Z,23.05
2018-06-08T17:47:20.531Z,23.10
2018-06-08T17:49:56.559Z,23.14
2018-06-08T17:52:33.213Z,23.24
2018-06-08T17:55:09.424Z,23.26
2018-06-08T17:57:45.437Z,23.32
2018-06-08T18:00:23.551Z,23.37
2018-06-08T18:02:59.854Z,23.43
2018-06-08T18:05:36.291Z,23.47
2018-06-08T18:08:12.484Z,23.53
2018-06-08T18:10:48.536Z,23.56
2018-06-08T18:13:27.421Z,23.62
2018-06-08T18:16:03.782Z,23.65
2018-06-08T18:18:41.706Z,23.71
2018-06-08T18:21:18.339Z,23.81
2018-06-08T18:23:54.893Z,23.82
2018-06-08T18:26:31.444Z,23.82
2018-06-08T18:29:07.875Z,23.84
2018-06-08T18:31:44.096Z,23.89
2018-06-08T18:34:20.418Z,23.93
2018-06-08T18:36:56.450Z,23.98
2018-06-08T18:39:32.851Z,24.01
2018-06-08T18:42:09.393Z,24.04
2018-06-08T18:44:43.471Z,24.10
2018-06-08T18:47:19.876Z,24.17
2018-06-08T18:49:57.529Z,24.22
2018-06-08T18:52:34.339Z,24.28
2018-06-08T18:55:10.752Z,24.36
2018-06-08T18:57:47.088Z,24.40
2018-06-08T19:00:25.427Z,24.49
2018-06-08T19:03:01.664Z,24.53
2018-06-08T19:05:39.755Z,24.62
2018-06-08T19:08:16.799Z,24.68
2018-06-08T19:10:55.526Z,24.77
2018-06-08T19:13:33.297Z,24.81
2018-06-08T19:16:09.423Z,24.87
2018-06-08T19:18:43.213Z,24.93
2018-06-08T19:21:21.939Z,24.98
2018-06-08T19:23:58.215Z,25.05
2018-06-08T19:26:35.333Z,25.15
2018-06-08T19:29:11.403Z,25.23
2018-06-08T19:31:48.099Z,25.34
2018-06-08T19:34:24.578Z,25.38
2018-06-08T19:37:01.495Z,25.43
2018-06-08T19:39:37.818Z,25.48
2018-06-08T19:42:14.340Z,25.51
2018-06-08T19:44:50.884Z,25.58
2018-06-08T19:47:27.274Z,25.62
2018-06-08T19:50:03.682Z,25.70
2018-06-08T19:52:40.334Z,25.74
2018-06-08T19:55:17.408Z,25.87
2018-06-08T19:57:54.525Z,25.94
2018-06-08T20:00:31.937Z,25.99
2018-06-08T20:03:08.934Z,26.05
2018-06-08T20:05:43.322Z,26.11
2018-06-08T20:08:19.831Z,26.17
2018-06-08T20:10:56.421Z,26.23
2018-06-08T20:15:42.092Z,26.37
2018-06-08T20:18:18.273Z,26.43
2018-06-08T20:20:54.547Z,26.48
2018-06-08T20:23:30.848Z,26.58
2018-06-08T20:26:07.089Z,26.65
2018-06-08T20:28:43.556Z,26.71
2018-06-08T20:31:19.208Z,26.80
2018-06-08T20:33:55.117Z,26.85
2018-06-08T20:36:31.073Z,26.89
2018-06-08T20:39:07.677Z,26.99
2018-06-08T20:41:43.426Z,27.04
2018-06-08T20:44:19.117Z,27.06
2018-06-08T20:46:54.885Z,27.10
2018-06-08T20:49:32.269Z,27.13
2018-06-08T20:52:09.882Z,27.20
2018-06-08T20:54:47.831Z,27.29
2018-06-08T20:57:34.415Z,27.32
2018-06-08T21:00:10.740Z,27.40
2018-06-08T21:02:46.790Z,27.48
2018-06-08T21:05:22.761Z,27.58
2018-06-08T21:07:58.693Z,27.68
2018-06-08T21:10:34.819Z,27.74
2018-06-08T21:13:11.411Z,27.84
2018-06-08T21:15:48.095Z,27.93
2018-06-08T21:18:24.113Z,28.02
2018-06-08T21:21:00.205Z,28.08
2018-06-08T21:23:35.891Z,28.17
2018-06-08T21:26:11.438Z,28.23
2018-06-08T21:28:47.874Z,28.31
2018-06-08T21:31:24.865Z,28.38
2018-06-08T21:34:00.751Z,28.45
2018-06-08T21:36:36.661Z,28.51
2018-06-08T21:39:14.559Z,28.57
2018-06-08T21:41:50.269Z,28.63
2018-06-08T21:44:26.087Z,28.69
2018-06-08T21:47:02.188Z,28.75
2018-06-08T21:49:38.287Z,28.83
2018-06-08T21:52:15.210Z,28.88
2018-06-08T21:54:52.050Z,28.92
2018-06-08T21:57:29.421Z,28.99
2018-06-08T22:00:08.855Z,29.06
2018-06-08T22:02:45.847Z,29.11
2018-06-08T22:05:21.841Z,29.12
2018-06-08T22:07:57.481Z,29.14
2018-06-08T22:10:33.283Z,29.14
2018-06-08T22:13:09.260Z,29.15
2018-06-08T22:15:45.412Z,29.20
2018-06-08T22:18:21.073Z,29.26
2018-06-08T22:20:58.258Z,29.29
2018-06-08T22:23:34.087Z,29.29
2018-06-08T22:26:10.267Z,29.31
2018-06-08T22:28:44.419Z,29.34
2018-06-08T22:31:20.423Z,29.33
2018-06-08T22:33:56.317Z,29.32
2018-06-08T22:36:33.111Z,29.36
2018-06-08T22:39:10.266Z,29.42
2018-06-08T22:41:45.906Z,29.44
2018-06-08T22:44:21.748Z,29.46
2018-06-08T22:46:58.862Z,29.49
2018-06-08T22:50:45.865Z,29.47
2018-06-08T22:53:22.207Z,29.53
2018-06-08T22:55:58.097Z,29.54
2018-06-08T22:58:34.260Z,29.58
2018-06-08T23:01:11.407Z,29.63
2018-06-08T23:03:47.431Z,29.66
2018-06-08T23:06:23.309Z,29.66
2018-06-08T23:08:59.454Z,29.59
2018-06-08T23:11:35.265Z,29.60
2018-06-08T23:14:11.571Z,29.65
2018-06-08T23:16:47.206Z,29.62
2018-06-08T23:19:23.096Z,29.58
2018-06-08T23:21:59.118Z,29.53
2018-06-08T23:24:36.826Z,29.56
2018-06-08T23:27:27.004Z,29.57
2018-06-08T23:30:02.903Z,29.53
2018-06-08T23:32:39.136Z,29.53
2018-06-08T23:35:16.205Z,29.53
2018-06-08T23:37:52.115Z,29.56
2018-06-08T23:40:28.270Z,29.59
2018-06-08T23:43:04.443Z,29.60
2018-06-08T23:45:40.283Z,29.59
2018-06-08T23:48:16.318Z,29.61
2018-06-08T23:50:52.210Z,29.58
2018-06-08T23:53:28.301Z,29.53
2018-06-08T23:56:04.423Z,29.50
2018-06-08T23:58:40.260Z,29.46
